Ayia Paraskevi, Greece
Current Conditions -  °F | °C
As of 5:20 AM on Wednesday 22 Oct 2014 (Local Time) from LGMT Reporting Station
Few Clouds Few Clouds  
Wind Chill: 66°   Ceiling: Unl
Heat Index: 66°   Visibility: 6mi
Dew Point: 55°   Wind: 14mph
Humidity: 68%   Direction: 150°SSE
Pressure: 29.88"   Gusts: NA
Location:  39.25°N, 26.27°E
Report Text: LGMT 220320Z 15012KT 110V210 9999 FEW025 19/13 Q1012
Loading
Personal Weather Stations






























Interactive Weather Map
Tropical Storm Tracking
New forecast layout! Learn more

10-Day Weather Forecast

Advertisements
Track Severe Weather on mobile